createdAt,value
2023-05-16T09:43:55.878Z,94.70
2023-05-16T09:46:27.545Z,94.90
2023-05-16T09:48:55.492Z,94.10
2023-05-16T09:51:23.330Z,94.50
2023-05-16T09:53:51.291Z,94.70
2023-05-16T09:56:18.173Z,95.20
2023-05-16T09:58:47.308Z,95.20
2023-05-16T10:01:14.145Z,94.60
2023-05-16T10:03:43.200Z,94.90
2023-05-16T10:06:14.768Z,95.10
2023-05-16T10:08:43.236Z,95.30
2023-05-16T10:11:11.236Z,94.90
2023-05-16T10:13:39.157Z,95.00
2023-05-16T10:16:12.506Z,95.30
2023-05-16T10:18:40.708Z,95.30
2023-05-16T10:21:15.102Z,95.00
2023-05-16T10:23:43.584Z,94.10
2023-05-16T10:26:14.281Z,94.00
2023-05-16T10:28:41.898Z,93.90
2023-05-16T10:31:11.345Z,93.20
2023-05-16T10:33:39.257Z,93.80
2023-05-16T10:36:08.024Z,94.10
2023-05-16T10:38:36.366Z,93.60
2023-05-16T10:41:03.540Z,93.80
2023-05-16T10:43:31.193Z,93.30
2023-05-16T10:46:11.630Z,93.10
2023-05-16T10:48:40.297Z,93.70
2023-05-16T10:51:22.533Z,93.80
2023-05-16T10:53:54.354Z,93.30
2023-05-16T10:56:31.364Z,93.50
2023-05-16T10:58:58.197Z,94.40
2023-05-16T11:01:30.201Z,93.80
2023-05-16T11:03:57.324Z,94.00
2023-05-16T11:06:25.832Z,92.70
2023-05-16T11:09:10.898Z,92.10
2023-05-16T11:11:53.073Z,93.20
2023-05-16T11:14:22.211Z,93.10
2023-05-16T11:17:09.488Z,93.00
2023-05-16T11:19:59.263Z,90.80
2023-05-16T11:22:30.101Z,91.30
2023-05-16T11:25:06.994Z,90.10
2023-05-16T11:27:34.870Z,87.90
2023-05-16T11:30:10.952Z,90.20
2023-05-16T11:32:39.687Z,88.70
2023-05-16T11:35:09.605Z,89.90
2023-05-16T11:37:39.300Z,87.90
2023-05-16T11:40:08.729Z,86.30
2023-05-16T11:42:47.677Z,87.40
2023-05-16T11:45:25.647Z,86.10
2023-05-16T11:47:56.113Z,86.00
2023-05-16T11:50:24.214Z,86.60
2023-05-16T11:52:56.910Z,85.60
2023-05-16T11:55:41.444Z,87.50
2023-05-16T11:58:10.643Z,85.90
2023-05-16T12:00:37.532Z,84.20
2023-05-16T12:03:06.349Z,89.20
2023-05-16T12:05:35.136Z,89.30
2023-05-16T12:08:04.781Z,89.10
2023-05-16T12:10:34.359Z,87.10
2023-05-16T12:13:02.445Z,83.40
2023-05-16T12:15:30.012Z,86.00
2023-05-16T12:17:57.441Z,86.40
2023-05-16T12:20:26.200Z,85.50
2023-05-16T12:22:53.387Z,81.70
2023-05-16T12:25:28.849Z,80.50
2023-05-16T12:27:58.597Z,78.20
2023-05-16T12:30:26.818Z,80.60
2023-05-16T13:29:25.147Z,73.90
2023-05-16T13:31:52.224Z,73.50
2023-05-16T13:34:19.195Z,70.00
2023-05-16T13:36:53.757Z,72.40
2023-05-16T13:39:22.197Z,73.40
2023-05-16T13:41:49.520Z,74.40
2023-05-16T13:44:16.705Z,73.80
2023-05-16T13:46:44.211Z,73.30
2023-05-16T13:49:11.103Z,74.10
2023-05-16T13:51:37.918Z,74.70
2023-05-16T13:54:04.769Z,73.70
2023-05-16T13:56:31.606Z,72.60
2023-05-16T13:59:02.523Z,72.70
2023-05-16T14:01:33.093Z,71.50
2023-05-16T14:04:00.219Z,72.50
2023-05-16T14:06:27.169Z,73.20
2023-05-16T14:08:54.464Z,70.60
2023-05-16T14:11:28.474Z,71.30
2023-05-16T14:13:57.200Z,71.40
2023-05-16T14:16:24.115Z,72.00
2023-05-16T14:18:51.077Z,72.00
2023-05-16T14:21:18.045Z,72.40
2023-05-16T14:23:45.246Z,71.80
2023-05-16T14:26:12.146Z,72.10
2023-05-16T14:28:39.003Z,72.20
2023-05-16T14:31:05.999Z,72.80
2023-05-16T14:33:33.345Z,73.70
2023-05-16T14:36:04.434Z,73.50
2023-05-16T14:38:32.805Z,71.90
2023-05-16T14:41:02.433Z,72.50
2023-05-16T14:43:29.351Z,71.60
2023-05-16T14:45:56.186Z,71.70
2023-05-16T14:48:23.174Z,74.40
2023-05-16T14:50:53.157Z,73.80
2023-05-16T14:53:21.536Z,72.40
2023-05-16T14:55:49.182Z,71.90
2023-05-16T14:58:16.309Z,71.80
2023-05-16T15:00:43.158Z,70.70
2023-05-16T15:03:10.065Z,71.80
2023-05-16T15:05:37.005Z,71.60
2023-05-16T15:08:04.205Z,72.60
2023-05-16T15:10:31.256Z,72.20
2023-05-16T15:12:58.106Z,72.20
2023-05-16T15:15:24.992Z,72.10
2023-05-16T15:17:52.162Z,71.90
2023-05-16T15:20:20.490Z,71.70
2023-05-16T15:22:49.457Z,71.90
2023-05-16T15:25:16.339Z,72.20
2023-05-16T15:27:44.359Z,72.50
2023-05-16T15:30:12.217Z,72.60
2023-05-16T15:32:39.095Z,72.60
2023-05-16T15:35:06.509Z,72.70
2023-05-16T15:37:33.368Z,73.20
2023-05-16T15:40:00.282Z,73.30
2023-05-16T15:42:27.268Z,72.80
2023-05-16T15:44:54.086Z,73.30
2023-05-16T15:47:20.908Z,74.80
2023-05-16T15:49:47.703Z,74.00
2023-05-16T15:52:14.596Z,75.30
2023-05-16T15:54:41.503Z,75.90
2023-05-16T15:57:08.382Z,73.50
2023-05-16T15:59:35.253Z,76.00
2023-05-16T16:02:05.428Z,74.40
2023-05-16T16:04:32.536Z,76.10
2023-05-16T16:07:01.743Z,72.70
2023-05-16T16:09:28.574Z,73.80
2023-05-16T16:11:56.623Z,75.00
2023-05-16T16:14:26.445Z,77.60
2023-05-16T16:16:53.458Z,78.10
2023-05-16T16:19:20.461Z,77.50
2023-05-16T16:21:47.377Z,79.60
2023-05-16T16:24:15.152Z,77.00
2023-05-16T16:26:44.049Z,73.80
2023-05-16T16:29:10.926Z,74.40
2023-05-16T16:31:37.958Z,75.50
2023-05-16T16:34:04.954Z,75.00
2023-05-16T16:36:32.435Z,74.10
2023-05-16T16:38:59.839Z,73.90
2023-05-16T16:41:26.663Z,74.10
2023-05-16T16:43:56.488Z,73.80
2023-05-16T16:46:23.578Z,75.10
2023-05-16T16:48:52.366Z,76.30
2023-05-16T16:51:19.337Z,77.30
2023-05-16T16:53:46.293Z,78.50
2023-05-16T16:56:13.683Z,78.80
2023-05-16T16:58:40.667Z,77.50
2023-05-16T17:01:07.675Z,75.80
2023-05-16T17:03:34.680Z,75.80
2023-05-16T17:06:01.502Z,76.20
2023-05-16T17:08:28.335Z,76.20
2023-05-16T17:10:55.158Z,76.30
2023-05-16T17:13:21.996Z,76.70
2023-05-16T17:15:48.893Z,77.40
2023-05-16T17:18:15.884Z,77.30
2023-05-16T17:20:42.713Z,77.20
2023-05-16T17:23:09.608Z,77.60
2023-05-16T17:25:36.448Z,77.80
2023-05-16T17:28:03.865Z,77.90
2023-05-16T17:30:30.967Z,77.70
2023-05-16T17:32:58.302Z,78.30
2023-05-16T17:35:25.279Z,78.00
2023-05-16T17:37:52.416Z,78.10
2023-05-16T17:40:19.251Z,78.50
2023-05-16T17:42:46.169Z,78.30
2023-05-16T17:45:15.486Z,78.30
2023-05-16T17:47:42.846Z,78.20
2023-05-16T17:50:10.967Z,78.70
2023-05-16T17:52:39.678Z,79.30
2023-05-16T17:55:10.423Z,79.70
2023-05-16T17:57:37.304Z,81.10
2023-05-16T18:00:05.697Z,81.50
2023-05-16T18:02:32.772Z,82.40
2023-05-16T18:04:59.660Z,83.30
2023-05-16T18:07:29.267Z,83.50
2023-05-16T18:09:56.160Z,83.60
2023-05-16T18:12:23.495Z,83.50
2023-05-16T18:14:50.536Z,84.00
2023-05-16T18:17:17.462Z,83.90
2023-05-16T18:19:44.503Z,84.10
2023-05-16T18:22:15.212Z,84.00
2023-05-16T18:24:42.097Z,84.00
2023-05-16T18:27:09.001Z,83.70
2023-05-16T18:29:35.874Z,83.80
2023-05-16T18:32:05.834Z,84.00
2023-05-16T18:34:34.075Z,83.50
2023-05-16T18:37:01.114Z,83.80
2023-05-16T18:39:28.000Z,84.40
2023-05-16T18:41:55.550Z,85.10
2023-05-16T18:44:22.358Z,85.70
2023-05-16T18:46:49.236Z,85.60
2023-05-16T18:49:16.782Z,86.70
2023-05-16T18:51:44.216Z,86.60
2023-05-16T18:54:11.051Z,87.60
2023-05-16T18:56:37.964Z,87.00
2023-05-16T18:59:04.785Z,87.40
2023-05-16T19:01:31.683Z,88.00
2023-05-16T19:04:01.655Z,87.90
2023-05-16T19:06:28.686Z,89.40
2023-05-16T19:08:55.643Z,89.10
2023-05-16T19:11:22.742Z,89.70
2023-05-16T19:13:50.700Z,90.70
2023-05-16T19:16:17.653Z,91.40
2023-05-16T19:18:44.622Z,89.50
2023-05-16T19:21:13.486Z,90.30
2023-05-16T19:23:40.652Z,90.30
2023-05-16T19:26:07.555Z,90.70
2023-05-16T19:28:34.801Z,90.30
2023-05-16T19:31:03.446Z,90.50
2023-05-16T19:33:30.301Z,90.60
2023-05-16T19:35:58.420Z,90.90
2023-05-16T19:38:29.190Z,91.30
2023-05-16T19:40:56.120Z,91.40
2023-05-16T19:43:23.660Z,91.50
2023-05-16T19:45:50.536Z,91.50
2023-05-16T19:48:20.371Z,91.70
2023-05-16T19:50:47.328Z,92.00
2023-05-16T19:53:14.212Z,92.50
2023-05-16T19:55:41.113Z,92.90
2023-05-16T19:58:07.972Z,92.90
2023-05-16T20:00:34.837Z,93.80
